Ana Sayfa
METAR-TAF:

METAR-TAF

Havaalanları :

Grand Turk, Turks ve Caicos Adaları

Enlem: 21-26-40N, Boylam: 071-08-32W, yükseklik: 4 m

METAR: eksik

Saat: 11:22 (15:22 UTC)

Tahmin

Rapor saat 10:00 UTC de 5 saat ve 22 dakika önce yapıldı.
Ayın 29'si saat 12 UTC'den ayın 30'si saat 12 UTC'ye kadar geçerli Tahmin
Rüzgar güneydoğudan 6 kt
Görüş mesafesi: 9000 m
1800 ft yükseklikte az bulutlu, Kümülonimbus.
2000 ft yükseklikte parçalı bulutlu
8000 ft yükseklikte parçalı çok bulutlu
gök gürültülü fırtına, yağmur
Dönüşüyor
ayın 29'si saat 18 UTC'den ayın 29'si saat 22 UTC'ye kadar
Rüzgar güneydoğudan 10 kt
1800 ft yükseklikte az bulutlu, Kümülonimbus.
2500 ft yükseklikte parçalı bulutlu
Civarda sağanaklar

TAF: MBGT 291000Z 2912/3012 13006KT 9000 TSRA FEW018CB SCT020 BKN080 BECMG 2918/2922 14010KT VCSH FEW018CB SCT025

4.000'den fazla havaalanı için hava durumu gözlemleri ve tahminleri (METAR ve TAF raporları).

Kullanılabilir istasyonlar harita üzerinde sarı ve kırmızı noktalarla gösterilir.

İstasyonun adını görmek için fareyi noktanın üzerinde gezdirin.

Sonrasında hava gözlem ve tahminlerini görmek için tıklayın.

Haritayı değiştirmek için: yaklaştırmak için siyah artı işaretli yeşil düğmeye ve uzaklaştırmak için de eksi işaretli düğmeye hızla tıklayın; bitişik haritalar için yeşil okları kullanın.


METAR-TAF: